Time;durP1;ratioP1;P1;durP2;ratioP2;P2;SDS_P1;SDS_P2;PMS_P1;PMS_P2;Temp;Humidity;BMP_temperature;BMP_pressure;BME280_temperature;BME280_humidity;BME280_pressure;Samples;Min_cycle;Max_cycle;Signal;HPM_P1;HPM_P2
2024/01/18 00:01:08;;;;;;;34.00;5.28;;;10.20;99.90;;;;;;5088711;28;20029;-51
2024/01/18 00:03:37;;;;;;;31.27;6.28;;;10.20;99.90;;;;;;5088783;28;20046;-50
2024/01/18 00:06:04;;;;;;;31.58;5.45;;;10.20;99.90;;;;;;5088318;28;20062;-50
2024/01/18 00:08:29;;;;;;;29.40;4.75;;;10.20;99.90;;;;;;5088428;28;20084;-50
2024/01/18 00:10:55;;;;;;;32.50;5.40;;;10.20;99.90;;;;;;5088574;28;20103;-50
2024/01/18 00:13:21;;;;;;;28.80;4.28;;;10.20;99.90;;;;;;5088597;28;20021;-50
2024/01/18 00:15:46;;;;;;;19.73;4.68;;;10.20;99.90;;;;;;5104006;28;20052;-50
2024/01/18 00:18:12;;;;;;;22.38;4.80;;;10.20;99.90;;;;;;5088503;28;20021;-50
2024/01/18 00:20:37;;;;;;;19.90;3.97;;;10.10;99.90;;;;;;5104076;28;20031;-50
2024/01/18 00:23:03;;;;;;;16.13;4.25;;;10.10;99.90;;;;;;5088502;28;20117;-50
2024/01/18 00:25:29;;;;;;;19.13;4.60;;;10.10;99.90;;;;;;5103612;28;20473;-51
2024/01/18 00:27:54;;;;;;;21.75;3.78;;;10.10;99.90;;;;;;5088298;28;20032;-50
2024/01/18 00:30:20;;;;;;;19.10;4.38;;;10.10;99.90;;;;;;5088266;28;20073;-50
2024/01/18 00:32:45;;;;;;;18.70;3.58;;;10.10;99.90;;;;;;5088455;28;20492;-50
2024/01/18 00:35:11;;;;;;;16.52;4.32;;;10.10;99.90;;;;;;5088067;28;20104;-51
2024/01/18 00:37:37;;;;;;;21.45;4.13;;;10.10;99.90;;;;;;5088113;28;20032;-51
2024/01/18 00:40:02;;;;;;;21.40;4.53;;;10.10;99.90;;;;;;5088242;28;20051;-50
2024/01/18 00:42:28;;;;;;;17.75;4.22;;;10.10;99.90;;;;;;5088148;28;20025;-50
2024/01/18 00:44:54;;;;;;;22.10;3.72;;;10.10;99.90;;;;;;5087921;28;20029;-50
2024/01/18 00:47:20;;;;;;;15.82;3.45;;;10.10;99.90;;;;;;5087883;28;20453;-50
2024/01/18 00:49:45;;;;;;;19.60;3.45;;;10.10;99.90;;;;;;5088069;28;20048;-50
2024/01/18 00:52:11;;;;;;;11.85;3.58;;;10.10;99.90;;;;;;5087769;28;20036;-50
2024/01/18 00:54:38;;;;;;;20.25;3.65;;;10.10;99.90;;;;;;5088142;28;20032;-51
2024/01/18 00:57:04;;;;;;;16.85;3.55;;;10.10;99.90;;;;;;5069727;28;20115;-48
2024/01/18 00:59:30;;;;;;;14.43;3.42;;;10.10;99.90;;;;;;5087915;28;20103;-48
2024/01/18 01:01:56;;;;;;;16.42;3.20;;;10.00;99.90;;;;;;5087716;28;20025;-51
2024/01/18 01:04:21;;;;;;;18.35;3.83;;;10.10;99.90;;;;;;5087249;28;20051;-51
2024/01/18 01:06:47;;;;;;;11.48;3.33;;;10.00;99.90;;;;;;5087064;28;20024;-51
2024/01/18 01:09:12;;;;;;;19.08;3.65;;;10.00;99.90;;;;;;5087542;28;20472;-50
2024/01/18 01:11:38;;;;;;;17.58;3.17;;;10.00;99.90;;;;;;5103091;28;20112;-50
2024/01/18 01:14:03;;;;;;;16.40;3.75;;;10.00;99.90;;;;;;5087500;28;20047;-50
2024/01/18 01:16:29;;;;;;;10.80;3.13;;;10.00;99.90;;;;;;5087279;28;20032;-51
2024/01/18 01:18:55;;;;;;;21.13;3.33;;;10.00;99.90;;;;;;5087194;28;20039;-50
2024/01/18 01:21:21;;;;;;;18.13;3.05;;;10.00;99.90;;;;;;5086854;28;20029;-51
2024/01/18 01:23:48;;;;;;;15.32;3.35;;;10.00;99.90;;;;;;5102855;28;20380;-51
2024/01/18 01:26:15;;;;;;;19.73;4.03;;;10.00;99.90;;;;;;5102103;28;20119;-51
2024/01/18 01:28:42;;;;;;;13.48;2.88;;;10.00;99.90;;;;;;5087227;28;20062;-50
2024/01/18 01:31:07;;;;;;;8.25;2.92;;;10.00;99.90;;;;;;5087148;28;20033;-51
2024/01/18 01:33:33;;;;;;;12.95;2.63;;;10.00;99.90;;;;;;5087137;28;20519;-50
2024/01/18 01:35:58;;;;;;;14.35;3.10;;;10.00;99.90;;;;;;5102482;28;20028;-51
2024/01/18 01:38:24;;;;;;;10.73;2.25;;;10.00;99.90;;;;;;5087011;28;20036;-50
2024/01/18 01:40:50;;;;;;;14.10;2.88;;;10.00;99.90;;;;;;5086887;28;20036;-50
2024/01/18 01:43:17;;;;;;;12.20;2.83;;;10.00;99.90;;;;;;5086829;28;20035;-50
2024/01/18 01:45:42;;;;;;;15.90;3.03;;;10.00;99.90;;;;;;5102106;28;20033;-51
2024/01/18 01:48:08;;;;;;;10.35;3.17;;;10.00;99.90;;;;;;5086681;28;20025;-51
2024/01/18 01:50:35;;;;;;;13.25;3.00;;;9.90;99.90;;;;;;5102299;28;20062;-51
2024/01/18 01:53:00;;;;;;;11.63;2.70;;;9.90;99.90;;;;;;5086775;28;20104;-51
2024/01/18 01:55:26;;;;;;;16.10;3.03;;;9.90;99.90;;;;;;5086798;28;20349;-51
2024/01/18 01:57:52;;;;;;;13.55;2.67;;;9.90;99.90;;;;;;5102219;28;20025;-51
2024/01/18 02:00:18;;;;;;;10.60;2.58;;;9.90;99.90;;;;;;5085348;28;20036;-50
2024/01/18 02:02:43;;;;;;;11.63;2.85;;;9.90;99.90;;;;;;5086657;28;20024;-51
2024/01/18 02:05:10;;;;;;;13.15;2.42;;;9.90;99.90;;;;;;5086476;28;20092;-50
2024/01/18 02:07:36;;;;;;;15.20;2.53;;;9.90;99.90;;;;;;5086291;28;20025;-51
2024/01/18 02:10:03;;;;;;;8.00;2.58;;;9.90;99.90;;;;;;5086459;28;20090;-50
2024/01/18 02:12:29;;;;;;;12.80;2.33;;;9.90;99.90;;;;;;5086197;28;20543;-51
2024/01/18 02:14:55;;;;;;;6.38;2.03;;;9.90;99.90;;;;;;5085101;28;20048;-51
2024/01/18 02:17:21;;;;;;;8.82;2.20;;;9.90;99.90;;;;;;5086203;28;20032;-51
2024/01/18 02:19:46;;;;;;;11.40;2.63;;;9.90;99.90;;;;;;5086281;28;20039;-51
2024/01/18 02:22:12;;;;;;;13.18;2.08;;;9.90;99.90;;;;;;5102118;28;20020;-50
2024/01/18 02:24:41;;;;;;;14.75;2.65;;;9.90;99.90;;;;;;5086254;28;20024;-51
2024/01/18 02:27:07;;;;;;;13.93;2.97;;;9.80;99.90;;;;;;5086010;28;20048;-51
2024/01/18 02:29:32;;;;;;;11.32;2.58;;;9.90;99.90;;;;;;5086184;28;20554;-50
2024/01/18 02:31:58;;;;;;;12.75;2.58;;;9.90;99.90;;;;;;5086065;28;20028;-51
2024/01/18 02:34:23;;;;;;;8.10;2.25;;;9.80;99.90;;;;;;5086228;28;20036;-50
2024/01/18 02:36:49;;;;;;;10.98;1.95;;;9.80;99.90;;;;;;5101583;28;20028;-50
2024/01/18 02:39:15;;;;;;;9.80;2.00;;;9.80;99.90;;;;;;5086026;28;20045;-51
2024/01/18 02:41:41;;;;;;;10.77;2.28;;;9.80;99.90;;;;;;5100968;28;20551;-50
2024/01/18 02:44:07;;;;;;;11.00;2.13;;;9.80;99.90;;;;;;5086319;28;20029;-51
2024/01/18 02:46:33;;;;;;;11.82;2.42;;;9.80;99.90;;;;;;5101820;28;20048;-51
2024/01/18 02:48:59;;;;;;;6.72;1.65;;;9.80;99.90;;;;;;5086331;28;20103;-51
2024/01/18 02:51:24;;;;;;;6.95;2.50;;;9.80;99.90;;;;;;5101437;28;20357;-50
2024/01/18 02:53:50;;;;;;;6.70;1.80;;;9.80;99.90;;;;;;5086134;28;20029;-50
2024/01/18 02:56:16;;;;;;;9.82;2.13;;;9.80;99.90;;;;;;5086101;28;20116;-51
2024/01/18 02:58:42;;;;;;;10.57;2.28;;;9.80;99.90;;;;;;5086089;28;20033;-50
2024/01/18 03:01:09;;;;;;;5.93;1.83;;;9.80;99.90;;;;;;5101822;28;20465;-51
2024/01/18 03:03:35;;;;;;;9.50;2.00;;;9.80;99.90;;;;;;5101712;28;20016;-50
2024/01/18 03:06:00;;;;;;;5.40;2.00;;;9.80;99.90;;;;;;5086197;28;20029;-51
2024/01/18 03:08:26;;;;;;;5.47;1.98;;;9.80;99.90;;;;;;5085831;28;20028;-51
2024/01/18 03:10:52;;;;;;;8.23;2.35;;;9.80;99.90;;;;;;5086040;28;20032;-50
2024/01/18 03:13:17;;;;;;;8.10;1.90;;;9.80;99.90;;;;;;5085978;28;20111;-51
2024/01/18 03:15:43;;;;;;;8.55;1.95;;;9.80;99.90;;;;;;5085756;28;20036;-51
2024/01/18 03:18:09;;;;;;;5.68;1.92;;;9.70;99.90;;;;;;5101246;28;20028;-50
2024/01/18 03:20:35;;;;;;;6.10;1.75;;;9.80;99.90;;;;;;5085990;28;20037;-51
2024/01/18 03:23:01;;;;;;;8.25;2.00;;;9.80;99.90;;;;;;5085844;28;20069;-50
2024/01/18 03:25:27;;;;;;;8.70;2.15;;;9.80;99.90;;;;;;5067793;28;20039;-51
2024/01/18 03:27:53;;;;;;;7.03;1.85;;;9.80;99.90;;;;;;5085777;28;20028;-51
2024/01/18 03:30:19;;;;;;;6.78;1.98;;;9.80;99.90;;;;;;5085850;28;20032;-51
2024/01/18 03:32:45;;;;;;;8.05;2.00;;;9.70;99.90;;;;;;5085571;28;20024;-50
2024/01/18 03:35:10;;;;;;;10.95;1.80;;;9.70;99.90;;;;;;5100918;28;20062;-51
2024/01/18 03:37:36;;;;;;;4.13;1.58;;;9.70;99.90;;;;;;5085253;28;20060;-50
2024/01/18 03:40:02;;;;;;;5.80;1.95;;;9.70;99.90;;;;;;5085699;28;20035;-51
2024/01/18 03:42:27;;;;;;;8.52;1.98;;;9.70;99.90;;;;;;5085653;28;20020;-51
2024/01/18 03:44:53;;;;;;;8.05;2.00;;;9.70;99.90;;;;;;5089150;28;20028;-50
2024/01/18 03:47:18;;;;;;;4.68;1.70;;;9.70;99.90;;;;;;5089237;28;20388;-50
2024/01/18 03:49:44;;;;;;;5.55;1.60;;;9.70;99.90;;;;;;5089065;28;20024;-50
2024/01/18 03:52:10;;;;;;;6.35;1.90;;;9.70;99.90;;;;;;5087765;28;20025;-51
2024/01/18 03:54:36;;;;;;;4.50;1.65;;;9.70;99.90;;;;;;5089013;28;20039;-50
2024/01/18 03:57:02;;;;;;;9.10;1.52;;;9.70;99.90;;;;;;5088973;28;20021;-50
2024/01/18 03:59:27;;;;;;;4.72;1.58;;;9.70;99.90;;;;;;5088936;28;20469;-51
2024/01/18 04:01:55;;;;;;;7.22;2.08;;;9.70;99.90;;;;;;5089117;28;20031;-50
2024/01/18 04:04:21;;;;;;;4.40;1.70;;;9.70;99.90;;;;;;5087396;28;20032;-51
2024/01/18 04:06:46;;;;;;;8.38;1.65;;;9.70;99.90;;;;;;5104402;28;20043;-50
2024/01/18 04:09:12;;;;;;;4.95;1.73;;;9.70;99.90;;;;;;5104178;28;20024;-51
2024/01/18 04:11:37;;;;;;;7.95;1.67;;;9.70;99.90;;;;;;5088793;28;20067;-51
2024/01/18 04:14:03;;;;;;;8.10;1.48;;;9.70;99.90;;;;;;5088582;28;20112;-50
2024/01/18 04:16:31;;;;;;;8.70;1.70;;;9.60;99.90;;;;;;5104065;28;20032;-50
2024/01/18 04:18:58;;;;;;;5.70;1.38;;;9.70;99.90;;;;;;5088633;28;20029;-51
2024/01/18 04:21:24;;;;;;;6.38;1.73;;;9.60;99.90;;;;;;5088723;28;20037;-51
2024/01/18 04:23:50;;;;;;;3.75;1.40;;;9.70;99.90;;;;;;5103926;28;20092;-50
2024/01/18 04:26:16;;;;;;;5.57;1.65;;;9.60;99.90;;;;;;5087305;28;20032;-51
2024/01/18 04:28:42;;;;;;;5.18;1.55;;;9.60;99.90;;;;;;5104028;28;20037;-50
2024/01/18 04:31:08;;;;;;;6.72;2.00;;;9.60;99.90;;;;;;5104220;28;20025;-50
2024/01/18 04:33:33;;;;;;;5.22;1.70;;;9.60;99.90;;;;;;5104036;28;20039;-50
2024/01/18 04:35:59;;;;;;;5.70;1.42;;;9.60;99.90;;;;;;5087985;28;20043;-51
2024/01/18 04:38:25;;;;;;;5.25;1.85;;;9.60;99.90;;;;;;5103892;28;20023;-51
2024/01/18 04:40:50;;;;;;;5.70;1.40;;;9.60;99.90;;;;;;5088274;28;20025;-50
2024/01/18 04:43:17;;;;;;;4.40;1.50;;;9.60;99.90;;;;;;5088363;28;20074;-51
2024/01/18 04:45:43;;;;;;;3.25;1.52;;;9.60;99.90;;;;;;5103442;28;20044;-50
2024/01/18 04:48:09;;;;;;;5.80;1.55;;;9.60;99.90;;;;;;5103527;28;20028;-50
2024/01/18 04:50:34;;;;;;;3.95;1.55;;;9.60;99.90;;;;;;5103639;28;20036;-51
2024/01/18 04:53:00;;;;;;;6.53;1.58;;;9.60;99.90;;;;;;5087678;28;20029;-50
2024/01/18 04:55:26;;;;;;;7.20;1.60;;;9.60;99.90;;;;;;5086561;28;20029;-50
2024/01/18 04:57:52;;;;;;;8.68;1.70;;;9.60;99.90;;;;;;5087451;28;20032;-51
2024/01/18 05:00:17;;;;;;;5.82;1.80;;;9.60;99.90;;;;;;5103407;28;20035;-50
2024/01/18 05:02:44;;;;;;;5.60;1.50;;;9.60;99.90;;;;;;5087671;28;20183;-51
2024/01/18 05:05:10;;;;;;;4.63;1.45;;;9.60;99.90;;;;;;5103129;28;20109;-51
2024/01/18 05:07:36;;;;;;;4.45;1.70;;;9.60;99.90;;;;;;5103206;28;20021;-51
2024/01/18 05:10:04;;;;;;;2.88;1.17;;;9.60;99.90;;;;;;5087409;28;20036;-51
2024/01/18 05:12:30;;;;;;;3.72;1.35;;;9.60;99.90;;;;;;5087377;28;20102;-51
2024/01/18 05:14:56;;;;;;;4.20;1.23;;;9.60;99.90;;;;;;5102824;28;20037;-51
2024/01/18 05:17:21;;;;;;;5.80;1.65;;;9.60;99.90;;;;;;5087304;28;20051;-51
2024/01/18 05:19:47;;;;;;;4.72;1.15;;;9.60;99.90;;;;;;5087154;28;20028;-51
2024/01/18 05:22:13;;;;;;;4.95;1.30;;;9.60;99.90;;;;;;5087418;28;20023;-50
2024/01/18 05:24:39;;;;;;;2.88;1.25;;;9.50;99.90;;;;;;5102839;28;20369;-50
2024/01/18 05:27:06;;;;;;;4.68;1.17;;;9.60;99.90;;;;;;5087356;28;20123;-59
2024/01/18 05:29:31;;;;;;;3.78;1.10;;;9.60;99.90;;;;;;5087122;28;20029;-59
2024/01/18 05:31:57;;;;;;;3.90;1.40;;;9.60;99.90;;;;;;5085660;28;20090;-59
2024/01/18 05:34:23;;;;;;;6.57;1.10;;;9.60;99.90;;;;;;5102517;28;20054;-59
2024/01/18 05:36:48;;;;;;;4.50;1.25;;;9.60;99.90;;;;;;5102563;28;20092;-58
2024/01/18 05:39:14;;;;;;;4.20;0.95;;;9.60;99.90;;;;;;5086866;28;20027;-59
2024/01/18 05:41:40;;;;;;;4.50;0.75;;;9.60;99.90;;;;;;5102707;28;20032;-59
2024/01/18 05:44:05;;;;;;;4.57;1.17;;;9.50;99.90;;;;;;5087080;28;20016;-59
2024/01/18 05:46:31;;;;;;;5.43;1.30;;;9.60;99.90;;;;;;5086977;28;20035;-59
2024/01/18 05:48:56;;;;;;;4.07;1.10;;;9.60;99.90;;;;;;5086844;28;20082;-59
2024/01/18 05:51:22;;;;;;;3.70;1.48;;;9.60;99.90;;;;;;5086884;28;20092;-59
2024/01/18 05:53:47;;;;;;;3.95;1.48;;;9.60;99.90;;;;;;5086610;28;20028;-59
2024/01/18 05:56:13;;;;;;;8.20;1.80;;;9.60;99.90;;;;;;5086651;28;20040;-59
2024/01/18 05:58:38;;;;;;;5.88;1.40;;;9.60;99.90;;;;;;5086528;28;20032;-60
2024/01/18 06:01:05;;;;;;;10.55;2.08;;;9.60;99.90;;;;;;5086335;28;20107;-59
2024/01/18 06:03:32;;;;;;;6.75;1.20;;;9.60;99.90;;;;;;5101706;28;20032;-59
2024/01/18 06:06:00;;;;;;;9.95;1.80;;;9.50;99.90;;;;;;5101613;28;20031;-59
2024/01/18 06:08:43;;;;;;;38.67;3.75;;;9.60;99.90;;;;;;5098590;28;20147;-59
2024/01/18 06:11:09;;;;;;;17.25;2.35;;;9.60;99.90;;;;;;5082251;28;20086;-59
2024/01/18 06:13:34;;;;;;;24.38;3.03;;;9.60;99.90;;;;;;5083812;28;20041;-59
2024/01/18 06:16:00;;;;;;;13.25;1.83;;;9.60;99.90;;;;;;5083766;28;20092;-59
2024/01/18 06:18:25;;;;;;;15.27;2.88;;;9.60;99.90;;;;;;5082438;28;20029;-59
2024/01/18 06:20:51;;;;;;;22.30;2.72;;;9.60;99.90;;;;;;5067177;28;20032;-59
2024/01/18 06:23:17;;;;;;;12.18;2.70;;;9.60;99.90;;;;;;5083999;28;20041;-59
2024/01/18 06:25:42;;;;;;;14.90;2.30;;;9.60;99.90;;;;;;5083944;28;20025;-59
2024/01/18 06:28:10;;;;;;;12.63;2.00;;;9.60;99.90;;;;;;5083865;28;20503;-58
2024/01/18 06:30:43;;;;;;;41.70;6.10;;;9.60;99.90;;;;;;5083648;28;20032;-59
2024/01/18 06:33:09;;;;;;;50.90;6.47;;;9.60;99.90;;;;;;5083995;28;20029;-58
2024/01/18 06:35:34;;;;;;;31.20;5.47;;;9.60;99.90;;;;;;5066963;28;20101;-59
2024/01/18 06:38:00;;;;;;;40.83;5.95;;;9.60;99.90;;;;;;5083775;28;20028;-59
2024/01/18 06:40:25;;;;;;;34.90;4.35;;;9.60;99.90;;;;;;5101766;28;20048;-58
2024/01/18 06:42:51;;;;;;;61.80;6.82;;;9.60;99.90;;;;;;5106218;28;20035;-58
2024/01/18 06:45:16;;;;;;;62.38;7.82;;;9.60;99.90;;;;;;5105764;28;20058;-59
2024/01/18 06:47:42;;;;;;;67.88;7.20;;;9.60;99.90;;;;;;5106335;28;20357;-59
2024/01/18 06:50:10;;;;;;;52.33;7.35;;;9.60;99.90;;;;;;5105799;28;20040;-58
2024/01/18 06:52:36;;;;;;;51.28;6.10;;;9.60;99.90;;;;;;5105852;28;20028;-59
2024/01/18 06:55:03;;;;;;;43.10;5.63;;;9.60;99.90;;;;;;5105922;28;20028;-58
2024/01/18 06:57:29;;;;;;;58.30;7.85;;;9.60;99.90;;;;;;5106161;28;20024;-58
2024/01/18 06:59:56;;;;;;;48.80;7.18;;;9.60;99.90;;;;;;5106356;28;20053;-59
2024/01/18 07:02:21;;;;;;;72.70;9.07;;;9.60;99.90;;;;;;5106105;28;20099;-59
2024/01/18 07:04:47;;;;;;;117.65;15.18;;;9.60;99.90;;;;;;5106005;28;20028;-57
2024/01/18 07:07:12;;;;;;;122.32;14.52;;;9.60;99.90;;;;;;5106088;28;20032;-59
2024/01/18 07:09:38;;;;;;;70.03;9.63;;;9.60;99.90;;;;;;5105590;28;20062;-59
2024/01/18 07:12:04;;;;;;;59.67;8.82;;;9.60;99.90;;;;;;5105806;28;20602;-58
2024/01/18 07:14:30;;;;;;;69.82;8.27;;;9.60;99.90;;;;;;5106454;28;20032;-58
2024/01/18 07:16:56;;;;;;;46.47;8.40;;;9.60;99.90;;;;;;5107152;28;20480;-59
2024/01/18 07:19:22;;;;;;;50.75;7.78;;;9.60;99.90;;;;;;5108969;28;20032;-59
2024/01/18 07:21:48;;;;;;;56.15;7.50;;;9.60;99.90;;;;;;5108298;28;20047;-58
2024/01/18 07:24:13;;;;;;;42.72;6.75;;;9.60;99.90;;;;;;5125341;28;20129;-59
2024/01/18 07:26:39;;;;;;;51.58;7.68;;;9.60;99.90;;;;;;5109635;28;20031;-59
2024/01/18 07:29:05;;;;;;;53.15;7.50;;;9.60;99.90;;;;;;5125167;28;20027;-59
2024/01/18 07:31:31;;;;;;;62.10;8.45;;;9.60;99.90;;;;;;5124978;28;20071;-59
2024/01/18 07:33:56;;;;;;;62.30;6.88;;;9.60;99.90;;;;;;5109276;28;20028;-59
2024/01/18 07:36:34;;;;;;;47.70;6.00;;;9.60;99.90;;;;;;5109609;28;20040;-59
2024/01/18 07:39:00;;;;;;;53.70;6.50;;;9.60;99.90;;;;;;5125138;28;20035;-50
2024/01/18 07:41:26;;;;;;;33.63;5.72;;;9.70;99.90;;;;;;5125155;28;20032;-50
2024/01/18 07:43:53;;;;;;;46.72;6.05;;;9.70;99.90;;;;;;5125113;28;20499;-50
2024/01/18 07:46:19;;;;;;;51.15;6.63;;;9.70;99.90;;;;;;5109472;28;20086;-50
2024/01/18 07:48:45;;;;;;;42.45;5.82;;;9.70;99.90;;;;;;5125069;28;20035;-50
2024/01/18 07:51:10;;;;;;;39.10;5.63;;;9.70;99.90;;;;;;5108728;28;20036;-50
2024/01/18 07:53:36;;;;;;;47.25;5.43;;;9.70;99.90;;;;;;5125095;28;20115;-50
2024/01/18 07:56:01;;;;;;;44.42;5.53;;;9.70;99.90;;;;;;5109260;28;20067;-50
2024/01/18 07:58:27;;;;;;;32.85;4.30;;;9.70;99.90;;;;;;5088758;28;20743;-50
2024/01/18 08:00:53;;;;;;;32.85;5.15;;;9.70;99.90;;;;;;5090806;28;20040;-50
2024/01/18 08:03:18;;;;;;;32.33;4.30;;;9.70;99.90;;;;;;5095265;28;20020;-50
2024/01/18 08:05:44;;;;;;;29.10;4.38;;;9.60;99.90;;;;;;5084211;28;20109;-50
2024/01/18 08:08:10;;;;;;;33.25;4.75;;;9.70;99.90;;;;;;5102413;28;20077;-50
2024/01/18 08:10:35;;;;;;;72.72;7.88;;;9.70;99.90;;;;;;5106027;28;20028;-50
2024/01/18 08:13:02;;;;;;;42.95;6.03;;;9.70;99.90;;;;;;5102018;28;20055;-50
2024/01/18 08:15:27;;;;;;;40.42;5.72;;;9.70;99.90;;;;;;5107288;28;20043;-50
2024/01/18 08:17:53;;;;;;;38.70;4.90;;;9.70;99.90;;;;;;5099642;28;20550;-49
2024/01/18 08:20:19;;;;;;;34.75;5.53;;;9.70;99.90;;;;;;5113195;28;20019;-50
2024/01/18 08:22:45;;;;;;;39.75;4.38;;;9.70;99.90;;;;;;5082563;28;20039;-50
2024/01/18 08:25:10;;;;;;;31.60;4.38;;;9.70;99.90;;;;;;5097665;28;20111;-50
2024/01/18 08:27:41;;;;;;;45.08;5.68;;;9.70;99.90;;;;;;5107299;28;20028;-50
2024/01/18 08:30:07;;;;;;;71.53;6.32;;;9.70;99.90;;;;;;5107792;28;20024;-50
2024/01/18 08:32:34;;;;;;;44.05;5.35;;;9.70;99.90;;;;;;5101872;28;20035;-50
2024/01/18 08:35:03;;;;;;;54.10;5.07;;;9.70;99.90;;;;;;5096975;28;20032;-50
2024/01/18 08:37:29;;;;;;;53.30;6.25;;;9.80;99.90;;;;;;5119472;28;20024;-50
2024/01/18 08:39:54;;;;;;;46.28;5.18;;;9.80;99.90;;;;;;5100388;28;20034;-50
2024/01/18 08:42:20;;;;;;;41.17;5.72;;;9.80;99.90;;;;;;5104078;28;20523;-50
2024/01/18 08:44:46;;;;;;;30.13;4.90;;;9.80;99.90;;;;;;5108368;27;20036;-50
2024/01/18 08:47:12;;;;;;;35.10;4.55;;;9.80;99.90;;;;;;5098101;28;20038;-50
2024/01/18 08:49:38;;;;;;;38.15;4.28;;;9.80;99.90;;;;;;5100763;28;20598;-50
2024/01/18 08:52:04;;;;;;;58.58;5.57;;;9.80;99.90;;;;;;5109272;28;20063;-50
2024/01/18 08:54:30;;;;;;;53.92;6.63;;;9.90;99.90;;;;;;5092791;28;20028;-50
2024/01/18 08:56:56;;;;;;;70.10;7.00;;;9.90;99.90;;;;;;5100115;28;20028;-50
2024/01/18 08:59:23;;;;;;;71.50;7.35;;;9.90;99.90;;;;;;5099233;28;20031;-50
2024/01/18 09:01:49;;;;;;;46.67;5.43;;;9.90;99.90;;;;;;5105130;28;20020;-50
2024/01/18 09:04:14;;;;;;;85.32;8.07;;;9.90;99.90;;;;;;5105781;28;20039;-50
2024/01/18 09:06:40;;;;;;;145.18;12.45;;;9.90;99.90;;;;;;5086714;28;20024;-50
2024/01/18 09:09:16;;;;;;;123.85;11.02;;;9.90;99.90;;;;;;5090546;28;20037;-50
2024/01/18 09:11:41;;;;;;;;;;;9.90;99.90;;;;;;5106467;28;20047;-50
2024/01/18 09:14:07;;;;;;;;;;;9.90;99.90;;;;;;5117528;28;19908;-49
2024/01/18 09:16:33;;;;;;;;;;;10.00;99.90;;;;;;5105107;28;19934;-49
2024/01/18 09:19:00;;;;;;;35.70;5.57;;;10.00;99.90;;;;;;5108568;27;19919;-50
2024/01/18 09:21:26;;;;;;;71.68;6.82;;;10.00;99.90;;;;;;5105266;28;20031;-50
2024/01/18 09:23:52;;;;;;;63.83;8.02;;;10.00;99.90;;;;;;5093840;28;20052;-49
2024/01/18 09:26:17;;;;;;;51.55;6.18;;;10.00;99.90;;;;;;5092993;28;20110;-50
2024/01/18 09:28:44;;;;;;;97.07;10.00;;;10.00;99.90;;;;;;5091532;28;20088;-50
2024/01/18 09:31:10;;;;;;;44.08;5.40;;;10.10;99.90;;;;;;5101118;28;20031;-50
2024/01/18 09:33:37;;;;;;;37.30;4.07;;;10.00;99.90;;;;;;5105127;28;20055;-50
2024/01/18 09:36:04;;;;;;;58.30;6.72;;;10.00;99.90;;;;;;5099743;28;20092;-50
2024/01/18 09:38:30;;;;;;;41.85;5.35;;;10.10;99.90;;;;;;5096036;28;20089;-50
2024/01/18 09:41:07;;;;;;;59.35;6.13;;;10.10;99.90;;;;;;5090995;28;20057;-51
2024/01/18 09:43:37;;;;;;;41.13;5.03;;;10.10;99.90;;;;;;5110885;28;20027;-50
2024/01/18 09:46:07;;;;;;;51.42;5.82;;;10.10;99.90;;;;;;5097439;28;20070;-50
2024/01/18 09:48:36;;;;;;;59.45;6.38;;;10.10;99.90;;;;;;5110023;28;20034;-50
2024/01/18 09:51:04;;;;;;;57.20;6.40;;;10.10;99.90;;;;;;5092973;28;20093;-50
2024/01/18 09:53:30;;;;;;;43.72;6.30;;;10.10;99.90;;;;;;5090708;28;20028;-50
2024/01/18 09:56:14;;;;;;;35.65;4.78;;;10.10;99.90;;;;;;5095643;28;20032;-50
2024/01/18 09:58:40;;;;;;;56.28;5.28;;;10.10;99.90;;;;;;5097479;28;20039;-49
2024/01/18 10:01:05;;;;;;;48.70;5.95;;;10.10;99.90;;;;;;5070599;28;20089;-50
2024/01/18 10:03:31;;;;;;;124.25;12.02;;;10.20;99.90;;;;;;5109976;28;20067;-50
2024/01/18 10:05:56;;;;;;;70.38;8.73;;;10.10;99.90;;;;;;5093583;28;20039;-50
2024/01/18 10:08:23;;;;;;;75.50;7.30;;;10.20;99.90;;;;;;5101871;28;20108;-50
2024/01/18 10:10:49;;;;;;;65.07;8.35;;;10.20;99.90;;;;;;5105596;28;20032;-50
2024/01/18 10:13:15;;;;;;;81.35;7.13;;;10.20;99.90;;;;;;5090785;28;20040;-50
2024/01/18 10:15:41;;;;;;;52.75;6.03;;;10.30;99.90;;;;;;5109212;28;20024;-50
2024/01/18 10:18:07;;;;;;;65.97;5.95;;;10.20;99.90;;;;;;5115206;28;20052;-50
2024/01/18 10:20:33;;;;;;;76.13;7.47;;;10.30;99.90;;;;;;5085715;28;20020;-50
2024/01/18 10:22:59;;;;;;;50.67;6.43;;;10.30;99.90;;;;;;5096932;28;20036;-50
2024/01/18 10:25:28;;;;;;;52.05;7.10;;;10.20;99.90;;;;;;5103478;28;20057;-50
2024/01/18 10:27:54;;;;;;;66.25;6.80;;;10.30;99.90;;;;;;5102217;28;20103;-50
2024/01/18 10:30:21;;;;;;;64.32;7.10;;;10.30;99.90;;;;;;5106124;28;20047;-50
2024/01/18 10:32:47;;;;;;;59.50;6.53;;;10.30;99.90;;;;;;5106219;28;20491;-50
2024/01/18 10:35:25;;;;;;;60.95;7.88;;;10.30;99.90;;;;;;5104479;28;20074;-50
2024/01/18 10:38:04;;;;;;;68.47;7.45;;;10.40;99.90;;;;;;5102142;28;20032;-50
2024/01/18 10:40:33;;;;;;;82.93;10.25;;;10.30;99.90;;;;;;5121930;28;20016;-50
2024/01/18 10:43:03;;;;;;;143.35;14.35;;;10.30;99.90;;;;;;5105912;28;20051;-49
2024/01/18 10:45:30;;;;;;;96.10;9.60;;;10.40;99.90;;;;;;5104433;28;20456;-50
2024/01/18 10:47:56;;;;;;;84.78;9.82;;;10.40;99.90;;;;;;5106083;28;20117;-50
2024/01/18 10:50:22;;;;;;;66.95;7.90;;;10.40;99.90;;;;;;5121558;28;20024;-50
2024/01/18 10:52:47;;;;;;;63.08;7.03;;;10.40;99.90;;;;;;5107270;28;20034;-50
2024/01/18 10:55:13;;;;;;;61.45;6.32;;;10.50;99.90;;;;;;5094829;28;20032;-48
2024/01/18 10:57:41;;;;;;;55.85;6.70;;;10.50;99.90;;;;;;5089054;28;20044;-50
2024/01/18 11:00:07;;;;;;;70.28;7.07;;;10.50;99.90;;;;;;5089889;28;20470;-50
2024/01/18 11:02:39;;;;;;;48.80;7.45;;;10.50;99.90;;;;;;5090733;28;20024;-50
2024/01/18 11:05:09;;;;;;;45.00;5.35;;;10.60;99.90;;;;;;5109983;28;20024;-50
2024/01/18 11:07:44;;;;;;;35.63;4.30;;;10.60;99.90;;;;;;5125108;28;20046;-49
2024/01/18 11:10:11;;;;;;;24.73;3.85;;;10.60;99.90;;;;;;5108644;28;20051;-50
2024/01/18 11:12:41;;;;;;;36.40;4.32;;;10.60;99.90;;;;;;5109450;28;20043;-50
2024/01/18 11:15:07;;;;;;;42.97;5.47;;;10.60;99.90;;;;;;5110861;28;20103;-49
2024/01/18 11:17:35;;;;;;;44.40;5.85;;;10.70;99.90;;;;;;5097102;28;20029;-49
2024/01/18 11:20:00;;;;;;;38.92;5.45;;;10.70;99.90;;;;;;5103131;28;20020;-50
2024/01/18 11:22:26;;;;;;;54.80;5.72;;;10.70;99.90;;;;;;5109400;28;20031;-49
2024/01/18 11:24:52;;;;;;;60.17;6.15;;;10.70;99.90;;;;;;5108905;28;20083;-50
2024/01/18 11:27:22;;;;;;;58.20;6.90;;;10.70;99.90;;;;;;5088551;28;20072;-50
2024/01/18 11:29:50;;;;;;;70.75;7.18;;;10.80;99.90;;;;;;5072487;28;20024;-49
2024/01/18 11:32:19;;;;;;;52.65;5.72;;;10.80;99.90;;;;;;5101522;28;20028;-50
2024/01/18 11:34:45;;;;;;;44.10;4.80;;;10.80;99.90;;;;;;5099993;28;20032;-50
2024/01/18 11:37:15;;;;;;;44.50;4.50;;;10.80;99.90;;;;;;5100221;28;20036;-50
2024/01/18 11:39:52;;;;;;;23.80;1.92;;;10.90;99.90;;;;;;5089221;28;20024;-50
2024/01/18 11:42:25;;;;;;;14.90;1.42;;;10.80;99.90;;;;;;5092333;28;20020;-49
2024/01/18 11:44:54;;;;;;;17.70;2.00;;;10.90;99.90;;;;;;5102957;28;20023;-49
2024/01/18 11:47:19;;;;;;;23.77;3.17;;;10.90;99.90;;;;;;5107723;28;20063;-49
2024/01/18 11:49:46;;;;;;;6.32;1.13;;;10.90;99.90;;;;;;5110525;28;20024;-49
2024/01/18 11:52:11;;;;;;;20.83;2.42;;;11.00;99.90;;;;;;5101801;28;20032;-50
2024/01/18 11:54:37;;;;;;;29.70;2.65;;;11.00;99.90;;;;;;5073273;28;20052;-49
2024/01/18 11:57:03;;;;;;;12.70;1.52;;;11.00;99.90;;;;;;5123186;28;20040;-50
2024/01/18 11:59:32;;;;;;;16.77;1.70;;;11.10;99.90;;;;;;5073901;28;20028;-50
2024/01/18 12:02:03;;;;;;;16.52;1.80;;;11.10;99.90;;;;;;5088569;28;20020;-49
2024/01/18 12:04:29;;;;;;;21.60;2.35;;;11.10;99.90;;;;;;5102425;28;20029;-50
2024/01/18 12:06:54;;;;;;;20.20;2.40;;;11.20;99.90;;;;;;5104142;28;20066;-50
2024/01/18 12:09:21;;;;;;;34.22;4.22;;;11.20;99.90;;;;;;5103050;28;20096;-49
2024/01/18 12:11:47;;;;;;;41.28;4.50;;;11.20;99.90;;;;;;5092083;28;20125;-49
2024/01/18 12:14:12;;;;;;;43.53;4.40;;;11.20;99.90;;;;;;5090859;28;20055;-50
2024/01/18 12:16:38;;;;;;;38.30;4.65;;;11.30;99.90;;;;;;5088159;28;20025;-50
2024/01/18 12:19:05;;;;;;;54.50;6.53;;;11.20;99.90;;;;;;5112012;28;20028;-50
2024/01/18 12:21:31;;;;;;;46.20;5.35;;;11.30;99.90;;;;;;5114826;28;20016;-50
2024/01/18 12:23:57;;;;;;;46.65;4.57;;;11.30;99.90;;;;;;5127691;28;20030;-50
2024/01/18 12:26:23;;;;;;;46.53;4.68;;;11.30;99.90;;;;;;5109178;28;20456;-50
2024/01/18 12:28:51;;;;;;;44.30;4.60;;;11.30;99.90;;;;;;5109145;28;20460;-50
2024/01/18 12:31:20;;;;;;;57.28;5.57;;;11.30;99.90;;;;;;5109013;28;20023;-50
2024/01/18 12:33:45;;;;;;;40.80;4.30;;;11.40;99.90;;;;;;5108923;28;20020;-48
2024/01/18 12:36:11;;;;;;;34.97;5.40;;;11.40;99.90;;;;;;5124188;28;20035;-50
2024/01/18 12:38:37;;;;;;;30.80;3.67;;;11.40;99.90;;;;;;5123818;28;20020;-50
2024/01/18 12:41:03;;;;;;;35.33;3.45;;;11.40;99.90;;;;;;5105127;28;20103;-50